createdAt,value
2023-02-24T00:00:17.274Z,948.30
2023-02-24T00:01:17.675Z,948.32
2023-02-24T00:02:17.369Z,948.31
2023-02-24T00:03:17.759Z,948.29
2023-02-24T00:04:17.243Z,948.27
2023-02-24T00:05:17.260Z,948.31
2023-02-24T00:06:17.197Z,948.28
2023-02-24T00:07:17.217Z,948.26
2023-02-24T00:08:17.166Z,948.27
2023-02-24T00:09:17.166Z,948.27
2023-02-24T00:10:17.153Z,948.21
2023-02-24T00:11:17.197Z,948.22
2023-02-24T00:12:17.121Z,948.21
2023-02-24T00:13:17.112Z,948.20
2023-02-24T00:14:17.093Z,948.21
2023-02-24T00:15:17.078Z,948.17
2023-02-24T00:16:17.285Z,948.21
2023-02-24T00:17:17.242Z,948.16
2023-02-24T00:18:17.035Z,948.17
2023-02-24T00:19:17.053Z,948.16
2023-02-24T00:20:17.007Z,948.15
2023-02-24T00:21:16.999Z,948.18
2023-02-24T00:22:17.000Z,948.12
2023-02-24T00:23:16.969Z,948.18
2023-02-24T00:24:16.998Z,948.12
2023-02-24T00:25:16.942Z,948.10
2023-02-24T00:26:16.964Z,948.06
2023-02-24T00:27:16.912Z,948.02
2023-02-24T00:28:16.901Z,948.06
2023-02-24T00:29:16.935Z,948.05
2023-02-24T00:30:16.908Z,948.07
2023-02-24T00:31:17.041Z,948.03
2023-02-24T00:32:17.077Z,948.02
2023-02-24T00:33:16.849Z,947.99
2023-02-24T00:34:16.828Z,947.99
2023-02-24T00:35:16.852Z,947.96
2023-02-24T00:36:16.811Z,947.94
2023-02-24T00:37:16.828Z,947.97
2023-02-24T00:38:16.782Z,947.95
2023-02-24T00:39:16.789Z,947.97
2023-02-24T00:40:16.787Z,947.95
2023-02-24T00:41:16.746Z,947.94
2023-02-24T00:42:16.753Z,947.92
2023-02-24T00:43:16.710Z,947.91
2023-02-24T00:44:16.702Z,947.92
2023-02-24T00:45:16.685Z,947.95
2023-02-24T00:46:16.732Z,947.96
2023-02-24T00:47:16.692Z,947.95
2023-02-24T00:48:16.675Z,947.95
2023-02-24T00:49:16.648Z,947.89
2023-02-24T00:50:16.653Z,947.88
2023-02-24T00:51:16.644Z,947.91
2023-02-24T00:52:16.593Z,947.90
2023-02-24T00:53:16.587Z,947.91
2023-02-24T00:54:16.585Z,947.90
2023-02-24T00:55:16.594Z,947.82
2023-02-24T00:56:16.554Z,947.89
2023-02-24T00:57:16.547Z,947.82
2023-02-24T00:58:16.524Z,947.88
2023-02-24T00:59:16.524Z,947.85
2023-02-24T01:00:16.706Z,947.84
2023-02-24T01:01:16.488Z,947.85
2023-02-24T01:02:16.464Z,947.84
2023-02-24T01:03:16.455Z,947.84
2023-02-24T01:04:16.498Z,947.83
2023-02-24T01:05:16.472Z,947.81
2023-02-24T01:06:16.406Z,947.87
2023-02-24T01:07:16.399Z,947.85
2023-02-24T01:08:16.394Z,947.88
2023-02-24T01:09:16.396Z,947.85
2023-02-24T01:10:16.372Z,947.83
2023-02-24T01:11:16.376Z,947.86
2023-02-24T01:12:16.470Z,947.83
2023-02-24T01:13:16.380Z,947.83
2023-02-24T01:14:16.327Z,947.85
2023-02-24T01:15:16.295Z,947.75
2023-02-24T01:16:16.356Z,947.76
2023-02-24T01:17:16.376Z,947.80
2023-02-24T01:18:16.258Z,947.74
2023-02-24T01:19:16.263Z,947.73
2023-02-24T01:20:16.255Z,947.74
2023-02-24T01:21:16.219Z,947.70
2023-02-24T01:22:16.209Z,947.74
2023-02-24T01:23:16.214Z,947.73
2023-02-24T01:24:16.180Z,947.74
2023-02-24T01:25:16.160Z,947.73
2023-02-24T01:26:16.168Z,947.70
2023-02-24T01:27:16.141Z,947.72
2023-02-24T01:28:16.188Z,947.68
2023-02-24T01:29:16.111Z,947.64
2023-02-24T01:30:16.605Z,947.64
2023-02-24T01:31:16.167Z,947.63
2023-02-24T01:32:16.354Z,947.67
2023-02-24T01:33:16.244Z,947.60
2023-02-24T01:34:16.064Z,947.63
2023-02-24T01:35:16.068Z,947.63
2023-02-24T01:36:16.026Z,947.64
2023-02-24T01:37:16.022Z,947.61
2023-02-24T01:38:16.062Z,947.59
2023-02-24T01:39:16.019Z,947.55
2023-02-24T01:40:15.969Z,947.61
2023-02-24T01:41:15.959Z,947.58
2023-02-24T01:42:15.938Z,947.58
2023-02-24T01:43:15.930Z,947.58
2023-02-24T01:44:15.945Z,947.55
2023-02-24T01:45:15.913Z,947.51
2023-02-24T01:46:15.930Z,947.49
2023-02-24T01:47:15.921Z,947.51
2023-02-24T01:48:15.894Z,947.50
2023-02-24T01:49:15.852Z,947.49
2023-02-24T01:50:15.839Z,947.47
2023-02-24T01:51:15.839Z,947.45
2023-02-24T01:52:15.838Z,947.45
2023-02-24T01:53:15.832Z,947.46
2023-02-24T01:54:15.838Z,947.46
2023-02-24T01:55:15.823Z,947.39
2023-02-24T01:56:15.774Z,947.42
2023-02-24T01:57:15.747Z,947.40
2023-02-24T01:58:15.753Z,947.41
2023-02-24T01:59:15.723Z,947.38
2023-02-24T02:00:15.738Z,947.36
2023-02-24T02:01:15.696Z,947.29
2023-02-24T02:02:15.843Z,947.31
2023-02-24T02:03:15.694Z,947.31
2023-02-24T02:04:15.668Z,947.30
2023-02-24T02:05:15.642Z,947.29
2023-02-24T02:06:15.651Z,947.26
2023-02-24T02:07:15.622Z,947.25
2023-02-24T02:08:15.616Z,947.29
2023-02-24T02:09:15.674Z,947.24
2023-02-24T02:10:15.763Z,947.24
2023-02-24T02:11:15.568Z,947.21
2023-02-24T02:12:15.567Z,947.21
2023-02-24T02:13:15.539Z,947.20
2023-02-24T02:14:15.566Z,947.21
2023-02-24T02:15:15.548Z,947.15
2023-02-24T02:16:15.552Z,947.14
2023-02-24T02:17:15.496Z,947.13
2023-02-24T02:18:15.484Z,947.13
2023-02-24T02:19:15.480Z,947.17
2023-02-24T02:20:15.489Z,947.16
2023-02-24T02:21:15.442Z,947.12
2023-02-24T02:22:15.428Z,947.15
2023-02-24T02:23:15.425Z,947.09
2023-02-24T02:24:15.411Z,947.09
2023-02-24T02:25:15.390Z,947.08
2023-02-24T02:26:15.396Z,947.09
2023-02-24T02:27:15.356Z,947.09
2023-02-24T02:28:15.341Z,947.09
2023-02-24T02:29:15.339Z,947.11
2023-02-24T02:30:15.313Z,947.09
2023-02-24T02:31:15.469Z,947.04
2023-02-24T02:32:15.442Z,947.07
2023-02-24T02:33:15.294Z,947.07
2023-02-24T02:34:15.273Z,947.06
2023-02-24T02:35:15.254Z,947.08
2023-02-24T02:36:15.267Z,947.09
2023-02-24T02:37:15.230Z,947.12
2023-02-24T02:38:15.367Z,947.12
2023-02-24T02:39:15.197Z,947.08
2023-02-24T02:40:15.197Z,947.09
2023-02-24T02:41:15.195Z,947.13
2023-02-24T02:42:15.156Z,947.09
2023-02-24T02:43:15.154Z,947.07
2023-02-24T02:44:15.147Z,947.06
2023-02-24T02:45:15.129Z,947.04
2023-02-24T02:46:15.197Z,947.02
2023-02-24T02:47:15.128Z,947.02
2023-02-24T02:48:15.090Z,947.01
2023-02-24T02:49:15.075Z,947.01
2023-02-24T02:50:15.055Z,947.06
2023-02-24T02:51:15.033Z,947.03
2023-02-24T02:52:15.058Z,946.99
2023-02-24T02:53:15.038Z,946.99
2023-02-24T02:54:15.010Z,947.03
2023-02-24T02:55:15.004Z,947.03
2023-02-24T02:56:14.982Z,947.00
2023-02-24T02:57:14.955Z,947.03
2023-02-24T02:58:14.983Z,947.02
2023-02-24T02:59:14.931Z,947.02
2023-02-24T03:00:14.928Z,946.98
2023-02-24T03:01:14.948Z,946.97
2023-02-24T03:02:15.053Z,946.92
2023-02-24T03:03:14.908Z,946.99
2023-02-24T03:04:14.858Z,946.98
2023-02-24T03:05:14.849Z,946.95
2023-02-24T03:06:14.835Z,946.95
2023-02-24T03:07:14.820Z,946.93
2023-02-24T03:08:14.828Z,946.95
2023-02-24T03:09:14.840Z,946.87
2023-02-24T03:10:14.788Z,946.94
2023-02-24T03:11:14.782Z,946.90
2023-02-24T03:12:14.779Z,946.90
2023-02-24T03:13:14.775Z,946.90
2023-02-24T03:14:14.750Z,946.93
2023-02-24T03:15:14.716Z,946.91
2023-02-24T03:16:14.819Z,946.88
2023-02-24T03:17:14.693Z,946.90
2023-02-24T03:18:14.687Z,946.91
2023-02-24T03:19:14.701Z,946.92
2023-02-24T03:20:14.653Z,946.85
2023-02-24T03:21:14.643Z,946.89
2023-02-24T03:22:14.699Z,946.86
2023-02-24T03:23:14.701Z,946.92
2023-02-24T03:24:14.596Z,946.96
2023-02-24T03:25:14.668Z,946.90
2023-02-24T03:26:14.575Z,946.88
2023-02-24T03:27:14.556Z,946.90
2023-02-24T03:28:14.581Z,946.88
2023-02-24T03:29:14.534Z,946.86
2023-02-24T03:30:14.518Z,946.83
2023-02-24T03:31:14.550Z,946.79
2023-02-24T03:32:14.673Z,946.85
2023-02-24T03:33:14.518Z,946.78
2023-02-24T03:34:14.467Z,946.82
2023-02-24T03:35:14.461Z,946.81
2023-02-24T03:36:14.445Z,946.80
2023-02-24T03:37:14.461Z,946.78
2023-02-24T03:38:14.433Z,946.80
2023-02-24T03:39:14.401Z,946.78
2023-02-24T03:40:14.397Z,946.78
2023-02-24T03:41:14.378Z,946.74
2023-02-24T03:42:14.418Z,946.77
2023-02-24T03:43:16.283Z,946.77
2023-02-24T03:44:14.341Z,946.74
2023-02-24T03:45:14.337Z,946.72
2023-02-24T03:46:14.342Z,946.72
2023-02-24T03:47:14.320Z,946.71
2023-02-24T03:48:14.286Z,946.73
2023-02-24T03:49:14.289Z,946.68
2023-02-24T03:50:14.296Z,946.69
2023-02-24T03:51:14.249Z,946.67
2023-02-24T03:52:14.232Z,946.69
2023-02-24T03:53:14.217Z,946.74
2023-02-24T03:54:14.252Z,946.71
2023-02-24T03:55:14.214Z,946.72
2023-02-24T03:56:14.181Z,946.72
2023-02-24T03:57:14.164Z,946.69
2023-02-24T03:58:14.196Z,946.67
2023-02-24T03:59:14.147Z,946.67
2023-02-24T04:00:14.121Z,946.67
2023-02-24T04:01:14.141Z,946.67
2023-02-24T04:02:14.144Z,946.64
2023-02-24T04:03:14.115Z,946.66
2023-02-24T04:04:14.079Z,946.61
2023-02-24T04:05:14.061Z,946.68
2023-02-24T04:06:14.109Z,946.67
2023-02-24T04:07:14.047Z,946.66
2023-02-24T04:08:14.020Z,946.65
2023-02-24T04:09:14.020Z,946.62
2023-02-24T04:10:14.002Z,946.62
2023-02-24T04:11:14.005Z,946.60
2023-02-24T04:12:14.106Z,946.57
2023-02-24T04:13:13.967Z,946.54
2023-02-24T04:14:13.936Z,946.55
2023-02-24T04:15:13.913Z,946.55
2023-02-24T04:16:13.974Z,946.48
2023-02-24T04:17:13.912Z,946.53
2023-02-24T04:18:13.914Z,946.51
2023-02-24T04:19:13.914Z,946.49
2023-02-24T04:20:13.871Z,946.47
2023-02-24T04:21:13.877Z,946.49
2023-02-24T04:22:13.861Z,946.46
2023-02-24T04:23:13.825Z,946.49
2023-02-24T04:24:13.844Z,946.45
2023-02-24T04:25:13.917Z,946.47
2023-02-24T04:26:13.793Z,946.47
2023-02-24T04:27:13.797Z,946.45
2023-02-24T04:28:13.755Z,946.46
2023-02-24T04:29:13.752Z,946.48
2023-02-24T04:30:13.734Z,946.45
2023-02-24T04:31:13.858Z,946.46
2023-02-24T04:32:13.987Z,946.46
2023-02-24T04:33:13.693Z,946.46
2023-02-24T04:34:13.684Z,946.42
2023-02-24T04:35:13.702Z,946.38
2023-02-24T04:36:13.668Z,946.41
2023-02-24T04:37:13.641Z,946.32
2023-02-24T04:38:13.621Z,946.32
2023-02-24T04:39:13.609Z,946.30
2023-02-24T04:40:13.636Z,946.30
2023-02-24T04:41:13.622Z,946.30
2023-02-24T04:42:13.579Z,946.32
2023-02-24T04:43:13.561Z,946.33
2023-02-24T04:44:13.567Z,946.27
2023-02-24T04:45:13.535Z,946.24
2023-02-24T04:46:13.614Z,946.28
2023-02-24T04:47:13.519Z,946.30
2023-02-24T04:48:13.529Z,946.29
2023-02-24T04:49:13.482Z,946.28
2023-02-24T04:50:13.462Z,946.26
2023-02-24T04:51:13.493Z,946.22
2023-02-24T04:52:13.470Z,946.23
2023-02-24T04:53:13.436Z,946.18
2023-02-24T04:54:13.420Z,946.22
2023-02-24T04:55:13.399Z,946.23
2023-02-24T04:56:13.418Z,946.23
2023-02-24T04:57:13.364Z,946.19
2023-02-24T04:58:13.359Z,946.21
2023-02-24T04:59:13.358Z,946.20
2023-02-24T05:00:13.342Z,946.19
2023-02-24T05:01:13.371Z,946.18
2023-02-24T05:02:13.332Z,946.19
2023-02-24T05:03:13.295Z,946.14
2023-02-24T05:04:13.447Z,946.15
2023-02-24T05:05:13.276Z,946.14
2023-02-24T05:06:13.294Z,946.12
2023-02-24T05:07:13.238Z,946.10
2023-02-24T05:08:13.232Z,946.06
2023-02-24T05:09:13.233Z,946.07
2023-02-24T05:10:13.209Z,946.05
2023-02-24T05:11:13.224Z,946.04
2023-02-24T05:12:13.186Z,946.05
2023-02-24T05:13:13.187Z,946.02
2023-02-24T05:14:13.158Z,946.01
2023-02-24T05:15:13.140Z,946.00
2023-02-24T05:16:13.198Z,945.99
2023-02-24T05:17:13.153Z,945.95
2023-02-24T05:18:13.096Z,945.96
2023-02-24T05:19:13.101Z,945.95
2023-02-24T05:20:13.085Z,945.94
2023-02-24T05:21:13.088Z,945.96
2023-02-24T05:22:13.055Z,945.89
2023-02-24T05:23:13.066Z,945.90
2023-02-24T05:24:13.021Z,945.86
2023-02-24T05:25:13.017Z,945.88
2023-02-24T05:26:13.002Z,945.86
2023-02-24T05:27:12.996Z,945.84
2023-02-24T05:28:12.991Z,945.82
2023-02-24T05:29:12.962Z,945.80
2023-02-24T05:30:12.949Z,945.83
2023-02-24T05:31:13.020Z,945.77
2023-02-24T05:32:13.070Z,945.80
2023-02-24T05:33:12.920Z,945.80
2023-02-24T05:34:12.908Z,945.77
2023-02-24T05:35:12.874Z,945.80
2023-02-24T05:36:12.865Z,945.77
2023-02-24T05:37:12.873Z,945.79
2023-02-24T05:38:12.844Z,945.79
2023-02-24T05:39:12.919Z,945.79
2023-02-24T05:40:12.852Z,945.78
2023-02-24T05:41:12.796Z,945.74
2023-02-24T05:42:12.818Z,945.78
2023-02-24T05:43:12.795Z,945.74
2023-02-24T05:44:12.763Z,945.72
2023-02-24T05:45:12.752Z,945.72
2023-02-24T05:46:12.833Z,945.74
2023-02-24T05:47:12.704Z,945.68
2023-02-24T05:48:12.720Z,945.66
2023-02-24T05:49:12.712Z,945.67
2023-02-24T05:50:12.693Z,945.65
2023-02-24T05:51:12.662Z,945.66
2023-02-24T05:52:12.666Z,945.66
2023-02-24T05:53:12.629Z,945.67
2023-02-24T05:54:12.627Z,945.65
2023-02-24T05:55:12.637Z,945.68
2023-02-24T05:56:12.598Z,945.71
2023-02-24T05:57:12.637Z,945.68
2023-02-24T05:58:12.578Z,945.70
2023-02-24T05:59:12.560Z,945.68
2023-02-24T06:00:12.580Z,945.70
2023-02-24T06:01:12.532Z,945.69
2023-02-24T06:02:12.647Z,945.67
2023-02-24T06:03:12.554Z,945.71
2023-02-24T06:04:12.518Z,945.66
2023-02-24T06:05:12.489Z,945.65
2023-02-24T06:06:12.475Z,945.66
2023-02-24T06:07:12.506Z,945.72
2023-02-24T06:08:12.454Z,945.70
2023-02-24T06:09:12.425Z,945.67
2023-02-24T06:10:12.414Z,945.65
2023-02-24T06:11:12.402Z,945.59
2023-02-24T06:12:12.401Z,945.65
2023-02-24T06:13:12.406Z,945.68
2023-02-24T06:14:12.366Z,945.64
2023-02-24T06:15:12.364Z,945.62
2023-02-24T06:16:12.429Z,945.66
2023-02-24T06:17:12.325Z,945.67
2023-02-24T06:18:12.340Z,945.67
2023-02-24T06:19:12.307Z,945.63
2023-02-24T06:20:12.293Z,945.63
2023-02-24T06:21:12.266Z,945.59
2023-02-24T06:22:12.256Z,945.60
2023-02-24T06:23:12.262Z,945.56
2023-02-24T06:24:12.254Z,945.60
2023-02-24T06:25:12.294Z,945.60
2023-02-24T06:26:12.201Z,945.64
2023-02-24T06:27:12.194Z,945.64
2023-02-24T06:28:12.217Z,945.62
2023-02-24T06:29:12.171Z,945.63
2023-02-24T06:30:12.153Z,945.63
2023-02-24T06:31:12.147Z,945.62
2023-02-24T06:32:12.286Z,945.63
2023-02-24T06:33:12.157Z,945.65
2023-02-24T06:34:12.097Z,945.61
2023-02-24T06:35:12.081Z,945.60
2023-02-24T06:36:12.095Z,945.65
2023-02-24T06:37:12.079Z,945.65
2023-02-24T06:38:12.063Z,945.60
2023-02-24T06:39:12.032Z,945.61
2023-02-24T06:40:12.025Z,945.63
2023-02-24T06:41:12.034Z,945.64
2023-02-24T06:42:12.039Z,945.62
2023-02-24T06:43:11.992Z,945.61
2023-02-24T06:44:12.008Z,945.61
2023-02-24T06:45:11.965Z,945.64
2023-02-24T06:46:12.037Z,945.63
2023-02-24T06:47:11.928Z,945.54
2023-02-24T06:48:11.921Z,945.59
2023-02-24T06:49:11.905Z,945.55
2023-02-24T06:50:11.919Z,945.52
2023-02-24T06:51:11.874Z,945.55
2023-02-24T06:52:12.040Z,945.54
2023-02-24T06:53:11.860Z,945.52
2023-02-24T06:54:11.844Z,945.52
2023-02-24T06:55:11.860Z,945.54
2023-02-24T06:56:11.856Z,945.54
2023-02-24T06:57:11.802Z,945.51
2023-02-24T06:58:11.794Z,945.53
2023-02-24T06:59:11.826Z,945.52
2023-02-24T07:00:11.789Z,945.52
2023-02-24T07:01:11.835Z,945.56
2023-02-24T07:02:11.734Z,945.55
2023-02-24T07:03:11.725Z,945.54
2023-02-24T07:04:11.749Z,945.56
2023-02-24T07:05:11.691Z,945.52
2023-02-24T07:06:11.713Z,945.50
2023-02-24T07:07:11.657Z,945.52
2023-02-24T07:08:11.651Z,945.51
2023-02-24T07:09:11.656Z,945.53
2023-02-24T07:10:11.664Z,945.50
2023-02-24T07:11:11.687Z,945.49
2023-02-24T07:12:11.621Z,945.49
2023-02-24T07:13:11.595Z,945.43
2023-02-24T07:14:11.584Z,945.45
2023-02-24T07:15:11.566Z,945.48
2023-02-24T07:16:11.623Z,945.49
2023-02-24T07:17:11.540Z,945.49
2023-02-24T07:18:11.517Z,945.50
2023-02-24T07:19:11.534Z,945.50
2023-02-24T07:20:11.514Z,945.43
2023-02-24T07:21:11.481Z,945.47
2023-02-24T07:22:11.491Z,945.46
2023-02-24T07:23:11.465Z,945.48
2023-02-24T07:24:11.473Z,945.44
2023-02-24T07:25:11.428Z,945.42
2023-02-24T07:26:11.416Z,945.42
2023-02-24T07:27:11.412Z,945.41
2023-02-24T07:28:11.402Z,945.34
2023-02-24T07:29:11.488Z,945.39
2023-02-24T07:30:11.369Z,945.33
2023-02-24T07:31:11.460Z,945.39
2023-02-24T07:32:11.562Z,945.36
2023-02-24T07:33:11.345Z,945.38
2023-02-24T07:34:11.323Z,945.35
2023-02-24T07:35:11.344Z,945.34
2023-02-24T07:36:11.283Z,945.34
2023-02-24T07:37:11.276Z,945.32
2023-02-24T07:38:11.260Z,945.34
2023-02-24T07:39:11.254Z,945.32
2023-02-24T07:40:11.269Z,945.33
2023-02-24T07:41:11.386Z,945.35
2023-02-24T07:42:11.223Z,945.38
2023-02-24T07:43:11.184Z,945.34
2023-02-24T07:44:11.180Z,945.37
2023-02-24T07:45:11.271Z,945.35
2023-02-24T07:46:11.178Z,945.37
2023-02-24T07:47:11.177Z,945.31
2023-02-24T07:48:11.121Z,945.32
2023-02-24T07:49:11.117Z,945.29
2023-02-24T07:50:11.090Z,945.32
2023-02-24T07:51:11.091Z,945.30
2023-02-24T07:52:11.118Z,945.26
2023-02-24T07:53:11.052Z,945.24
2023-02-24T07:54:11.056Z,945.25
2023-02-24T07:55:11.056Z,945.22
2023-02-24T07:56:11.021Z,945.21
2023-02-24T07:57:11.034Z,945.18
2023-02-24T07:58:10.988Z,945.14
2023-02-24T07:59:11.040Z,945.14
2023-02-24T08:00:13.139Z,945.13
2023-02-24T08:01:10.964Z,945.12
2023-02-24T08:02:11.067Z,945.04
2023-02-24T08:03:10.939Z,945.07
2023-02-24T08:04:10.913Z,945.06
2023-02-24T08:05:10.961Z,945.05
2023-02-24T08:06:10.895Z,945.02
2023-02-24T08:07:10.905Z,945.05
2023-02-24T08:08:10.860Z,945.06
2023-02-24T08:09:10.848Z,945.07
2023-02-24T08:10:10.862Z,945.05
2023-02-24T08:11:10.819Z,945.03
2023-02-24T08:12:10.803Z,945.05
2023-02-24T08:13:10.788Z,945.07
2023-02-24T08:14:10.785Z,945.07
2023-02-24T08:15:10.789Z,944.96
2023-02-24T08:16:10.836Z,944.99
2023-02-24T08:17:10.729Z,944.99
2023-02-24T08:18:10.732Z,944.99
2023-02-24T08:19:10.723Z,945.03
2023-02-24T08:20:10.721Z,945.02
2023-02-24T08:21:10.689Z,945.02
2023-02-24T08:22:10.809Z,945.03
2023-02-24T08:23:10.690Z,945.03
2023-02-24T08:24:10.666Z,945.02
2023-02-24T08:25:10.648Z,944.96
2023-02-24T08:26:10.684Z,944.99
2023-02-24T08:27:10.614Z,944.94
2023-02-24T08:28:10.623Z,944.93
2023-02-24T08:29:10.583Z,944.93
2023-02-24T08:30:10.572Z,944.93
2023-02-24T08:31:10.839Z,944.93
2023-02-24T08:32:10.710Z,944.93
2023-02-24T08:33:10.524Z,944.88
2023-02-24T08:34:10.514Z,944.82
2023-02-24T08:35:10.513Z,944.83
2023-02-24T08:36:10.522Z,944.81
2023-02-24T08:37:10.478Z,944.81
2023-02-24T08:38:10.475Z,944.82
2023-02-24T08:39:10.500Z,944.82
2023-02-24T08:40:10.454Z,944.77
2023-02-24T08:41:10.444Z,944.81
2023-02-24T08:42:10.418Z,944.82
2023-02-24T08:43:10.407Z,944.89
2023-02-24T08:44:10.430Z,944.77
2023-02-24T08:45:10.373Z,944.82
2023-02-24T08:46:10.407Z,944.76
2023-02-24T08:47:10.352Z,944.76
2023-02-24T08:48:10.339Z,944.74
2023-02-24T08:49:10.335Z,944.74
2023-02-24T08:50:10.316Z,944.73
2023-02-24T08:51:10.306Z,944.71
2023-02-24T08:52:10.328Z,944.66
2023-02-24T08:53:10.278Z,944.67
2023-02-24T08:54:10.250Z,944.67
2023-02-24T08:55:10.326Z,944.61
2023-02-24T08:56:10.238Z,944.63
2023-02-24T08:57:10.228Z,944.64
2023-02-24T08:58:10.201Z,944.63
2023-02-24T08:59:10.217Z,944.66
2023-02-24T09:00:10.203Z,944.67
2023-02-24T09:01:10.195Z,944.70
2023-02-24T09:02:10.149Z,944.65
2023-02-24T09:03:10.133Z,944.64
2023-02-24T09:04:10.113Z,944.63
2023-02-24T09:05:13.084Z,944.60
2023-02-24T09:06:10.102Z,944.54
2023-02-24T09:07:11.883Z,944.48
2023-02-24T09:08:10.061Z,944.48
2023-02-24T09:09:10.108Z,944.52
2023-02-24T09:10:10.064Z,944.55
2023-02-24T09:11:10.032Z,944.53
2023-02-24T09:12:10.028Z,944.51
2023-02-24T09:13:10.009Z,944.52
2023-02-24T09:14:21.126Z,944.47
2023-02-24T09:15:10.020Z,944.52
2023-02-24T09:16:09.990Z,944.49
2023-02-24T09:17:09.960Z,944.43
2023-02-24T09:18:09.939Z,944.42
2023-02-24T09:19:09.925Z,944.38
2023-02-24T09:20:09.934Z,944.41
2023-02-24T09:21:09.911Z,944.36
2023-02-24T09:22:16.547Z,944.36
2023-02-24T09:23:09.881Z,944.35
2023-02-24T09:24:09.888Z,944.40
2023-02-24T09:25:09.837Z,944.35
2023-02-24T09:26:09.851Z,944.28
2023-02-24T09:27:09.827Z,944.29
2023-02-24T09:28:09.829Z,944.27
2023-02-24T09:29:09.789Z,944.24
2023-02-24T09:30:09.788Z,944.27
2023-02-24T09:31:09.929Z,944.21
2023-02-24T09:32:09.887Z,944.18
2023-02-24T09:33:09.964Z,944.17
2023-02-24T09:34:09.727Z,944.19
2023-02-24T09:35:09.711Z,944.17
2023-02-24T09:36:10.084Z,944.18
2023-02-24T09:37:09.692Z,944.16
2023-02-24T09:38:09.721Z,944.17
2023-02-24T09:39:09.698Z,944.10
2023-02-24T09:40:09.639Z,944.12
2023-02-24T09:41:18.498Z,944.11
2023-02-24T09:42:09.626Z,944.08
2023-02-24T09:43:09.596Z,944.06
2023-02-24T09:44:09.594Z,944.06
2023-02-24T09:45:09.593Z,944.07
2023-02-24T09:46:09.669Z,944.06
2023-02-24T09:47:09.561Z,944.03
2023-02-24T09:48:09.532Z,944.02
2023-02-24T09:49:09.525Z,944.00
2023-02-24T09:50:09.512Z,944.01
2023-02-24T09:51:09.511Z,943.94
2023-02-24T09:52:09.502Z,943.89
2023-02-24T09:53:11.469Z,943.84
2023-02-24T09:54:09.455Z,943.86
2023-02-24T09:55:09.435Z,943.81
2023-02-24T09:56:09.503Z,943.83
2023-02-24T09:57:09.571Z,943.79
2023-02-24T09:58:09.424Z,943.81
2023-02-24T09:59:09.394Z,943.78
2023-02-24T10:00:09.400Z,943.75
2023-02-24T10:01:09.425Z,943.69
2023-02-24T10:02:09.414Z,943.68
2023-02-24T10:03:09.375Z,943.69
2023-02-24T10:04:20.046Z,943.71
2023-02-24T10:05:09.316Z,943.70
2023-02-24T10:06:09.299Z,943.65
2023-02-24T10:07:09.282Z,943.65
2023-02-24T10:08:09.289Z,943.67
2023-02-24T10:09:09.254Z,943.69
2023-02-24T10:10:09.248Z,943.65
2023-02-24T10:11:09.272Z,943.66
2023-02-24T10:12:09.208Z,943.68
2023-02-24T10:13:09.198Z,943.66
2023-02-24T10:14:09.213Z,943.64
2023-02-24T10:15:09.177Z,943.62
2023-02-24T10:16:09.167Z,943.60
2023-02-24T10:17:09.184Z,943.61
2023-02-24T10:18:09.261Z,943.62
2023-02-24T10:19:09.156Z,943.57
2023-02-24T10:20:09.101Z,943.56
2023-02-24T10:21:09.150Z,943.57
2023-02-24T10:22:09.075Z,943.57
2023-02-24T10:23:09.080Z,943.50
2023-02-24T10:24:09.048Z,943.50
2023-02-24T10:25:09.046Z,943.48
2023-02-24T10:26:09.031Z,943.48
2023-02-24T10:27:16.338Z,943.49
2023-02-24T10:28:09.026Z,943.41
2023-02-24T10:29:09.186Z,943.41
2023-02-24T10:30:08.972Z,943.42
2023-02-24T10:31:09.076Z,943.39
2023-02-24T10:32:09.212Z,943.38
2023-02-24T10:33:08.962Z,943.38
2023-02-24T10:34:08.930Z,943.32
2023-02-24T10:35:08.940Z,943.29
2023-02-24T10:36:08.902Z,943.28
2023-02-24T10:37:10.362Z,943.23
2023-02-24T10:38:08.865Z,943.23
2023-02-24T10:39:08.886Z,943.20
2023-02-24T10:40:08.839Z,943.19
2023-02-24T10:41:08.814Z,943.17
2023-02-24T10:42:08.856Z,943.16
2023-02-24T10:43:08.792Z,943.17
2023-02-24T10:44:08.833Z,943.14
2023-02-24T10:45:09.827Z,943.14
2023-02-24T10:46:08.845Z,943.13
2023-02-24T10:47:08.754Z,943.12
2023-02-24T10:48:11.557Z,943.09
2023-02-24T10:49:08.736Z,943.09
2023-02-24T10:50:08.708Z,943.04
2023-02-24T10:51:08.697Z,943.03
2023-02-24T10:52:08.692Z,943.03
2023-02-24T10:53:08.666Z,943.06
2023-02-24T10:54:08.680Z,942.97
2023-02-24T10:55:08.652Z,942.94
2023-02-24T10:56:08.626Z,942.94
2023-02-24T10:57:08.607Z,942.92
2023-02-24T10:58:08.598Z,942.91
2023-02-24T10:59:08.596Z,942.88
2023-02-24T11:00:08.602Z,942.82
2023-02-24T11:01:08.568Z,942.81
2023-02-24T11:02:08.562Z,942.75
2023-02-24T11:03:08.579Z,942.76
2023-02-24T11:04:08.523Z,942.72
2023-02-24T11:05:08.549Z,942.73
2023-02-24T11:06:08.492Z,942.72
2023-02-24T11:07:08.480Z,942.71
2023-02-24T11:08:08.456Z,942.70
2023-02-24T11:09:08.452Z,942.68
2023-02-24T11:10:10.409Z,942.65
2023-02-24T11:11:08.436Z,942.63
2023-02-24T11:12:08.431Z,942.57
2023-02-24T11:13:10.354Z,942.58
2023-02-24T11:14:08.383Z,942.51
2023-02-24T11:15:08.403Z,942.48
2023-02-24T11:16:08.440Z,942.50
2023-02-24T11:17:08.337Z,942.45
2023-02-24T11:18:08.335Z,942.48
2023-02-24T11:19:08.313Z,942.45
2023-02-24T11:20:08.321Z,942.46
2023-02-24T11:21:08.339Z,942.48
2023-02-24T11:22:08.279Z,942.41
2023-02-24T11:23:08.257Z,942.39
2023-02-24T11:24:08.242Z,942.37
2023-02-24T11:25:08.225Z,942.38
2023-02-24T11:26:08.234Z,942.35
2023-02-24T11:27:08.457Z,942.28
2023-02-24T11:28:08.199Z,942.30
2023-02-24T11:29:08.181Z,942.25
2023-02-24T11:30:08.164Z,942.24
2023-02-24T11:31:08.442Z,942.26
2023-02-24T11:32:08.298Z,942.20
2023-02-24T11:33:08.122Z,942.20
2023-02-24T11:34:08.142Z,942.17
2023-02-24T11:35:08.181Z,942.17
2023-02-24T11:36:08.654Z,942.14
2023-02-24T11:37:08.556Z,942.09
2023-02-24T11:38:08.084Z,942.05
2023-02-24T11:39:17.756Z,942.02
2023-02-24T11:40:08.234Z,942.00
2023-02-24T11:41:08.057Z,941.98
2023-02-24T11:42:08.010Z,941.93
2023-02-24T11:43:08.408Z,941.91
2023-02-24T11:44:08.331Z,941.91
2023-02-24T11:45:07.968Z,941.89
2023-02-24T11:46:08.517Z,941.86
2023-02-24T11:47:07.951Z,941.86
2023-02-24T11:48:07.964Z,941.84
2023-02-24T11:49:07.909Z,941.81
2023-02-24T11:50:07.924Z,941.79
2023-02-24T11:51:07.879Z,941.82
2023-02-24T11:52:07.874Z,941.77
2023-02-24T11:53:07.856Z,941.75
2023-02-24T11:54:07.847Z,941.74
2023-02-24T11:55:07.854Z,941.74
2023-02-24T11:56:08.136Z,941.77
2023-02-24T11:57:07.796Z,941.81
2023-02-24T11:58:07.797Z,941.77
2023-02-24T11:59:07.779Z,941.76
2023-02-24T12:00:07.801Z,941.76
2023-02-24T12:01:07.747Z,941.74
2023-02-24T12:02:07.739Z,941.70
2023-02-24T12:03:07.765Z,941.73
2023-02-24T12:04:07.729Z,941.67
2023-02-24T12:05:07.702Z,941.70
2023-02-24T12:06:07.772Z,941.75
2023-02-24T12:07:07.670Z,941.71
2023-02-24T12:08:07.657Z,941.70
2023-02-24T12:09:07.647Z,941.64
2023-02-24T12:10:16.749Z,941.65
2023-02-24T12:11:07.623Z,941.69
2023-02-24T12:12:07.597Z,941.65
2023-02-24T12:13:08.179Z,941.60
2023-02-24T12:14:07.590Z,941.59
2023-02-24T12:15:07.578Z,941.58
2023-02-24T12:16:07.642Z,941.54
2023-02-24T12:17:07.557Z,941.54
2023-02-24T12:18:07.529Z,941.57
2023-02-24T12:19:07.515Z,941.54
2023-02-24T12:20:07.526Z,941.55
2023-02-24T12:21:07.493Z,941.54
2023-02-24T12:22:07.496Z,941.50
2023-02-24T12:23:07.444Z,941.53
2023-02-24T12:24:08.929Z,941.51
2023-02-24T12:25:07.440Z,941.48
2023-02-24T12:26:07.437Z,941.46
2023-02-24T12:27:07.440Z,941.43
2023-02-24T12:28:07.403Z,941.43